sensor_id;sensor_type;location;lat;lon;timestamp;temperature;humidity
20998;DHT22;10657;51.276;6.390;2023-09-08T00:02:25;21.10;99.90
20998;DHT22;10657;51.276;6.390;2023-09-08T00:04:52;21.10;99.90
20998;DHT22;10657;51.276;6.390;2023-09-08T00:07:20;21.10;99.90
20998;DHT22;10657;51.276;6.390;2023-09-08T00:09:46;21.20;99.90
20998;DHT22;10657;51.276;6.390;2023-09-08T00:12:13;21.30;99.90
20998;DHT22;10657;51.276;6.390;2023-09-08T00:14:40;21.00;99.90
20998;DHT22;10657;51.276;6.390;2023-09-08T00:17:07;21.10;99.90
20998;DHT22;10657;51.276;6.390;2023-09-08T00:19:34;21.30;99.90
20998;DHT22;10657;51.276;6.390;2023-09-08T00:22:01;21.30;99.90
20998;DHT22;10657;51.276;6.390;2023-09-08T00:24:27;21.20;99.90
20998;DHT22;10657;51.276;6.390;2023-09-08T00:26:54;21.20;99.90
20998;DHT22;10657;51.276;6.390;2023-09-08T00:29:21;21.20;99.90
20998;DHT22;10657;51.276;6.390;2023-09-08T00:31:47;21.20;99.90
20998;DHT22;10657;51.276;6.390;2023-09-08T00:34:14;21.20;99.90
20998;DHT22;10657;51.276;6.390;2023-09-08T00:36:41;21.10;99.90
20998;DHT22;10657;51.276;6.390;2023-09-08T00:39:08;21.10;99.90
20998;DHT22;10657;51.276;6.390;2023-09-08T00:41:34;21.10;99.90
20998;DHT22;10657;51.276;6.390;2023-09-08T00:44:01;20.90;99.90
20998;DHT22;10657;51.276;6.390;2023-09-08T00:46:28;20.60;99.90
20998;DHT22;10657;51.276;6.390;2023-09-08T00:48:57;20.50;99.90
20998;DHT22;10657;51.276;6.390;2023-09-08T00:51:23;20.50;99.90
20998;DHT22;10657;51.276;6.390;2023-09-08T00:53:50;20.40;99.90
20998;DHT22;10657;51.276;6.390;2023-09-08T00:56:17;20.50;99.90
20998;DHT22;10657;51.276;6.390;2023-09-08T00:58:44;20.40;99.90
20998;DHT22;10657;51.276;6.390;2023-09-08T01:01:11;20.60;99.90
20998;DHT22;10657;51.276;6.390;2023-09-08T01:03:38;20.60;99.90
20998;DHT22;10657;51.276;6.390;2023-09-08T01:06:06;20.70;99.90
20998;DHT22;10657;51.276;6.390;2023-09-08T01:08:33;20.70;99.90
20998;DHT22;10657;51.276;6.390;2023-09-08T01:11:01;20.70;99.90
20998;DHT22;10657;51.276;6.390;2023-09-08T01:13:28;20.60;99.90
20998;DHT22;10657;51.276;6.390;2023-09-08T01:15:55;20.70;99.90
20998;DHT22;10657;51.276;6.390;2023-09-08T01:18:22;20.70;99.90
20998;DHT22;10657;51.276;6.390;2023-09-08T01:24:18;20.20;99.90
20998;DHT22;10657;51.276;6.390;2023-09-08T01:26:48;20.20;99.90
20998;DHT22;10657;51.276;6.390;2023-09-08T01:29:16;20.30;99.90
20998;DHT22;10657;51.276;6.390;2023-09-08T01:31:43;20.40;99.90
20998;DHT22;10657;51.276;6.390;2023-09-08T01:34:12;20.40;99.90
20998;DHT22;10657;51.276;6.390;2023-09-08T01:36:39;20.40;99.90
20998;DHT22;10657;51.276;6.390;2023-09-08T01:39:06;20.50;99.90
20998;DHT22;10657;51.276;6.390;2023-09-08T01:41:33;20.10;99.90
20998;DHT22;10657;51.276;6.390;2023-09-08T01:44:00;20.20;99.90
20998;DHT22;10657;51.276;6.390;2023-09-08T01:46:31;20.20;99.90
20998;DHT22;10657;51.276;6.390;2023-09-08T01:48:58;20.20;99.90
20998;DHT22;10657;51.276;6.390;2023-09-08T01:51:25;20.10;99.90
20998;DHT22;10657;51.276;6.390;2023-09-08T01:53:51;19.70;99.90
20998;DHT22;10657;51.276;6.390;2023-09-08T01:56:18;19.60;99.90
20998;DHT22;10657;51.276;6.390;2023-09-08T01:58:45;19.70;99.90
20998;DHT22;10657;51.276;6.390;2023-09-08T02:01:11;19.80;99.90
20998;DHT22;10657;51.276;6.390;2023-09-08T02:03:38;19.90;99.90
20998;DHT22;10657;51.276;6.390;2023-09-08T02:06:05;19.90;99.90
20998;DHT22;10657;51.276;6.390;2023-09-08T02:08:31;20.00;99.90
20998;DHT22;10657;51.276;6.390;2023-09-08T02:10:58;19.80;99.90
20998;DHT22;10657;51.276;6.390;2023-09-08T02:13:25;19.70;99.90
20998;DHT22;10657;51.276;6.390;2023-09-08T02:15:52;19.80;99.90
20998;DHT22;10657;51.276;6.390;2023-09-08T02:18:18;19.80;99.90
20998;DHT22;10657;51.276;6.390;2023-09-08T02:20:45;19.70;99.90
20998;DHT22;10657;51.276;6.390;2023-09-08T02:23:12;19.40;99.90
20998;DHT22;10657;51.276;6.390;2023-09-08T02:25:38;19.50;99.90
20998;DHT22;10657;51.276;6.390;2023-09-08T02:28:05;19.20;99.90
20998;DHT22;10657;51.276;6.390;2023-09-08T02:30:32;19.10;99.90
20998;DHT22;10657;51.276;6.390;2023-09-08T02:32:59;18.90;99.90
20998;DHT22;10657;51.276;6.390;2023-09-08T02:35:26;19.20;99.90
20998;DHT22;10657;51.276;6.390;2023-09-08T02:37:54;19.30;99.90
20998;DHT22;10657;51.276;6.390;2023-09-08T02:40:20;19.50;99.90
20998;DHT22;10657;51.276;6.390;2023-09-08T02:42:47;19.40;99.90
20998;DHT22;10657;51.276;6.390;2023-09-08T02:45:14;19.20;99.90
20998;DHT22;10657;51.276;6.390;2023-09-08T02:47:41;19.30;99.90
20998;DHT22;10657;51.276;6.390;2023-09-08T02:50:08;19.20;99.90
20998;DHT22;10657;51.276;6.390;2023-09-08T02:52:35;19.20;99.90
20998;DHT22;10657;51.276;6.390;2023-09-08T02:55:01;19.20;99.90
20998;DHT22;10657;51.276;6.390;2023-09-08T02:57:28;19.10;99.90
20998;DHT22;10657;51.276;6.390;2023-09-08T02:59:55;19.10;99.90
20998;DHT22;10657;51.276;6.390;2023-09-08T03:02:24;19.20;99.90
20998;DHT22;10657;51.276;6.390;2023-09-08T03:04:52;19.00;99.90
20998;DHT22;10657;51.276;6.390;2023-09-08T03:07:19;18.90;99.90
20998;DHT22;10657;51.276;6.390;2023-09-08T03:09:45;19.00;99.90
20998;DHT22;10657;51.276;6.390;2023-09-08T03:12:12;19.10;99.90
20998;DHT22;10657;51.276;6.390;2023-09-08T03:14:39;18.90;99.90
20998;DHT22;10657;51.276;6.390;2023-09-08T03:17:06;18.90;99.90
20998;DHT22;10657;51.276;6.390;2023-09-08T03:19:33;18.90;99.90
20998;DHT22;10657;51.276;6.390;2023-09-08T03:21:59;18.80;99.90
20998;DHT22;10657;51.276;6.390;2023-09-08T03:24:26;18.90;99.90
20998;DHT22;10657;51.276;6.390;2023-09-08T03:26:53;18.90;99.90
20998;DHT22;10657;51.276;6.390;2023-09-08T03:29:19;18.70;99.90
20998;DHT22;10657;51.276;6.390;2023-09-08T03:31:46;18.50;99.90
20998;DHT22;10657;51.276;6.390;2023-09-08T03:34:13;18.40;99.90
20998;DHT22;10657;51.276;6.390;2023-09-08T03:36:40;18.50;99.90
20998;DHT22;10657;51.276;6.390;2023-09-08T03:39:07;18.50;99.90
20998;DHT22;10657;51.276;6.390;2023-09-08T03:41:35;18.60;99.90
20998;DHT22;10657;51.276;6.390;2023-09-08T03:44:02;18.70;99.90
20998;DHT22;10657;51.276;6.390;2023-09-08T03:46:29;18.80;99.90
20998;DHT22;10657;51.276;6.390;2023-09-08T03:48:56;18.60;99.90
20998;DHT22;10657;51.276;6.390;2023-09-08T03:51:27;18.60;99.90
20998;DHT22;10657;51.276;6.390;2023-09-08T03:53:54;18.70;99.90
20998;DHT22;10657;51.276;6.390;2023-09-08T03:56:21;18.70;99.90
20998;DHT22;10657;51.276;6.390;2023-09-08T03:58:48;18.70;99.90
20998;DHT22;10657;51.276;6.390;2023-09-08T04:01:15;18.60;99.90
20998;DHT22;10657;51.276;6.390;2023-09-08T04:03:42;18.50;99.90
20998;DHT22;10657;51.276;6.390;2023-09-08T04:06:08;18.40;99.90
20998;DHT22;10657;51.276;6.390;2023-09-08T04:08:35;18.40;99.90
20998;DHT22;10657;51.276;6.390;2023-09-08T04:11:02;18.40;99.90
20998;DHT22;10657;51.276;6.390;2023-09-08T04:13:29;18.40;99.90
20998;DHT22;10657;51.276;6.390;2023-09-08T04:15:55;18.40;99.90
20998;DHT22;10657;51.276;6.390;2023-09-08T04:18:22;18.30;99.90
20998;DHT22;10657;51.276;6.390;2023-09-08T04:20:49;18.30;99.90
20998;DHT22;10657;51.276;6.390;2023-09-08T04:23:15;18.40;99.90
20998;DHT22;10657;51.276;6.390;2023-09-08T04:25:42;18.40;99.90
20998;DHT22;10657;51.276;6.390;2023-09-08T04:28:09;18.40;99.90
20998;DHT22;10657;51.276;6.390;2023-09-08T04:30:35;18.40;99.90
20998;DHT22;10657;51.276;6.390;2023-09-08T04:33:02;18.40;99.90
20998;DHT22;10657;51.276;6.390;2023-09-08T04:35:29;18.40;99.90
20998;DHT22;10657;51.276;6.390;2023-09-08T04:37:56;18.40;99.90
20998;DHT22;10657;51.276;6.390;2023-09-08T04:40:22;18.30;99.90
20998;DHT22;10657;51.276;6.390;2023-09-08T04:42:49;18.30;99.90
20998;DHT22;10657;51.276;6.390;2023-09-08T04:45:16;18.30;99.90
20998;DHT22;10657;51.276;6.390;2023-09-08T04:47:42;18.30;99.90
20998;DHT22;10657;51.276;6.390;2023-09-08T04:50:09;18.30;99.90
20998;DHT22;10657;51.276;6.390;2023-09-08T04:52:36;18.30;99.90
20998;DHT22;10657;51.276;6.390;2023-09-08T04:55:03;18.30;99.90
20998;DHT22;10657;51.276;6.390;2023-09-08T04:57:30;18.40;99.90
20998;DHT22;10657;51.276;6.390;2023-09-08T04:59:56;18.30;99.90
20998;DHT22;10657;51.276;6.390;2023-09-08T05:02:23;18.20;99.90
20998;DHT22;10657;51.276;6.390;2023-09-08T05:04:50;18.10;99.90
20998;DHT22;10657;51.276;6.390;2023-09-08T05:07:17;18.10;99.90
20998;DHT22;10657;51.276;6.390;2023-09-08T05:09:45;18.10;99.90
20998;DHT22;10657;51.276;6.390;2023-09-08T05:12:12;18.10;99.90
20998;DHT22;10657;51.276;6.390;2023-09-08T05:14:38;18.20;99.90
20998;DHT22;10657;51.276;6.390;2023-09-08T05:17:05;18.10;99.90
20998;DHT22;10657;51.276;6.390;2023-09-08T05:19:32;18.10;99.90
20998;DHT22;10657;51.276;6.390;2023-09-08T05:21:59;18.10;99.90
20998;DHT22;10657;51.276;6.390;2023-09-08T05:24:25;18.10;99.90
20998;DHT22;10657;51.276;6.390;2023-09-08T05:26:53;18.10;99.90
20998;DHT22;10657;51.276;6.390;2023-09-08T05:29:20;18.10;99.90
20998;DHT22;10657;51.276;6.390;2023-09-08T05:31:46;18.10;99.90
20998;DHT22;10657;51.276;6.390;2023-09-08T05:34:13;18.20;99.90
20998;DHT22;10657;51.276;6.390;2023-09-08T05:36:40;18.20;99.90
20998;DHT22;10657;51.276;6.390;2023-09-08T05:39:08;18.20;99.90
20998;DHT22;10657;51.276;6.390;2023-09-08T05:41:35;18.20;99.90
20998;DHT22;10657;51.276;6.390;2023-09-08T05:44:02;18.30;99.90
20998;DHT22;10657;51.276;6.390;2023-09-08T05:46:29;18.30;99.90
20998;DHT22;10657;51.276;6.390;2023-09-08T05:48:56;18.40;99.90
20998;DHT22;10657;51.276;6.390;2023-09-08T05:51:22;18.40;99.90
20998;DHT22;10657;51.276;6.390;2023-09-08T05:53:49;18.50;99.90
20998;DHT22;10657;51.276;6.390;2023-09-08T05:56:18;18.40;99.90
20998;DHT22;10657;51.276;6.390;2023-09-08T05:58:46;18.50;99.90
20998;DHT22;10657;51.276;6.390;2023-09-08T06:01:14;18.60;99.90
20998;DHT22;10657;51.276;6.390;2023-09-08T06:03:41;18.50;99.90
20998;DHT22;10657;51.276;6.390;2023-09-08T06:06:08;18.60;99.90
20998;DHT22;10657;51.276;6.390;2023-09-08T06:08:34;18.70;99.90
20998;DHT22;10657;51.276;6.390;2023-09-08T06:11:01;18.70;99.90
20998;DHT22;10657;51.276;6.390;2023-09-08T06:13:28;18.70;99.90
20998;DHT22;10657;51.276;6.390;2023-09-08T06:15:54;18.80;99.90
20998;DHT22;10657;51.276;6.390;2023-09-08T06:18:21;18.90;99.90
20998;DHT22;10657;51.276;6.390;2023-09-08T06:20:48;18.90;99.90
20998;DHT22;10657;51.276;6.390;2023-09-08T06:23:15;19.00;99.90
20998;DHT22;10657;51.276;6.390;2023-09-08T06:25:42;19.00;99.90
20998;DHT22;10657;51.276;6.390;2023-09-08T06:28:09;19.10;99.90
20998;DHT22;10657;51.276;6.390;2023-09-08T06:30:35;19.10;99.90
20998;DHT22;10657;51.276;6.390;2023-09-08T06:33:02;19.20;99.90
20998;DHT22;10657;51.276;6.390;2023-09-08T06:35:30;19.20;99.90
20998;DHT22;10657;51.276;6.390;2023-09-08T06:37:57;19.20;99.90
20998;DHT22;10657;51.276;6.390;2023-09-08T06:40:24;19.20;99.90
20998;DHT22;10657;51.276;6.390;2023-09-08T06:42:51;19.30;99.90
20998;DHT22;10657;51.276;6.390;2023-09-08T06:45:18;19.30;99.90
20998;DHT22;10657;51.276;6.390;2023-09-08T06:47:45;19.40;99.90
20998;DHT22;10657;51.276;6.390;2023-09-08T06:50:12;19.60;99.90
20998;DHT22;10657;51.276;6.390;2023-09-08T06:52:38;19.60;99.90
20998;DHT22;10657;51.276;6.390;2023-09-08T06:55:05;19.70;99.90
20998;DHT22;10657;51.276;6.390;2023-09-08T06:57:32;19.70;99.90
20998;DHT22;10657;51.276;6.390;2023-09-08T06:59:59;19.80;99.90
20998;DHT22;10657;51.276;6.390;2023-09-08T07:02:26;19.90;99.90
20998;DHT22;10657;51.276;6.390;2023-09-08T07:04:53;19.90;99.90
20998;DHT22;10657;51.276;6.390;2023-09-08T07:07:20;19.90;99.90
20998;DHT22;10657;51.276;6.390;2023-09-08T07:09:48;20.00;99.90
20998;DHT22;10657;51.276;6.390;2023-09-08T07:12:15;20.00;99.90
20998;DHT22;10657;51.276;6.390;2023-09-08T07:14:41;20.10;99.90
20998;DHT22;10657;51.276;6.390;2023-09-08T07:17:08;20.10;99.90
20998;DHT22;10657;51.276;6.390;2023-09-08T07:19:35;20.20;99.90
20998;DHT22;10657;51.276;6.390;2023-09-08T07:22:02;20.30;99.90
20998;DHT22;10657;51.276;6.390;2023-09-08T07:24:28;20.30;99.90
20998;DHT22;10657;51.276;6.390;2023-09-08T07:26:55;20.40;99.90
20998;DHT22;10657;51.276;6.390;2023-09-08T07:29:22;20.50;99.90
20998;DHT22;10657;51.276;6.390;2023-09-08T07:31:48;20.50;99.90
20998;DHT22;10657;51.276;6.390;2023-09-08T07:34:15;20.60;99.90
20998;DHT22;10657;51.276;6.390;2023-09-08T07:36:42;20.60;99.90
20998;DHT22;10657;51.276;6.390;2023-09-08T07:39:08;20.80;99.90
20998;DHT22;10657;51.276;6.390;2023-09-08T07:41:35;20.80;99.90
20998;DHT22;10657;51.276;6.390;2023-09-08T07:44:03;20.80;99.90
20998;DHT22;10657;51.276;6.390;2023-09-08T07:46:29;20.80;99.90
20998;DHT22;10657;51.276;6.390;2023-09-08T07:48:58;20.90;99.90
20998;DHT22;10657;51.276;6.390;2023-09-08T07:51:26;20.90;99.90
20998;DHT22;10657;51.276;6.390;2023-09-08T07:53:53;21.00;99.90
20998;DHT22;10657;51.276;6.390;2023-09-08T07:56:20;21.00;99.90
20998;DHT22;10657;51.276;6.390;2023-09-08T07:58:47;21.00;99.90
20998;DHT22;10657;51.276;6.390;2023-09-08T08:01:14;21.10;99.90
20998;DHT22;10657;51.276;6.390;2023-09-08T08:03:41;21.20;99.90
20998;DHT22;10657;51.276;6.390;2023-09-08T08:06:08;21.20;99.90
20998;DHT22;10657;51.276;6.390;2023-09-08T08:08:35;21.30;99.90
20998;DHT22;10657;51.276;6.390;2023-09-08T08:11:13;21.30;99.90
20998;DHT22;10657;51.276;6.390;2023-09-08T08:13:40;21.30;99.90
20998;DHT22;10657;51.276;6.390;2023-09-08T08:16:07;21.40;99.90
20998;DHT22;10657;51.276;6.390;2023-09-08T08:18:34;21.40;99.90
20998;DHT22;10657;51.276;6.390;2023-09-08T08:21:01;21.50;99.90
20998;DHT22;10657;51.276;6.390;2023-09-08T08:23:30;21.50;99.90
20998;DHT22;10657;51.276;6.390;2023-09-08T08:25:58;21.60;99.90
20998;DHT22;10657;51.276;6.390;2023-09-08T08:28:25;21.60;99.90
20998;DHT22;10657;51.276;6.390;2023-09-08T08:30:52;21.60;99.90
20998;DHT22;10657;51.276;6.390;2023-09-08T08:33:19;21.70;99.90
20998;DHT22;10657;51.276;6.390;2023-09-08T08:35:52;21.70;99.90
20998;DHT22;10657;51.276;6.390;2023-09-08T08:38:19;21.80;99.90
20998;DHT22;10657;51.276;6.390;2023-09-08T08:40:46;21.80;99.90
20998;DHT22;10657;51.276;6.390;2023-09-08T08:43:13;21.90;99.90
20998;DHT22;10657;51.276;6.390;2023-09-08T08:45:42;21.90;99.90
20998;DHT22;10657;51.276;6.390;2023-09-08T08:48:10;22.00;99.90
20998;DHT22;10657;51.276;6.390;2023-09-08T08:50:42;22.00;99.90
20998;DHT22;10657;51.276;6.390;2023-09-08T08:53:10;22.10;99.90
20998;DHT22;10657;51.276;6.390;2023-09-08T08:55:39;22.20;99.90
20998;DHT22;10657;51.276;6.390;2023-09-08T08:58:06;22.20;99.90
20998;DHT22;10657;51.276;6.390;2023-09-08T09:00:36;22.30;99.90
20998;DHT22;10657;51.276;6.390;2023-09-08T09:03:04;22.30;99.90
20998;DHT22;10657;51.276;6.390;2023-09-08T09:05:42;22.30;99.90
20998;DHT22;10657;51.276;6.390;2023-09-08T09:08:15;22.30;99.90
20998;DHT22;10657;51.276;6.390;2023-09-08T09:10:42;22.40;99.90
20998;DHT22;10657;51.276;6.390;2023-09-08T09:13:09;22.40;99.90
20998;DHT22;10657;51.276;6.390;2023-09-08T09:15:36;22.50;99.90
20998;DHT22;10657;51.276;6.390;2023-09-08T09:18:06;22.50;99.90
20998;DHT22;10657;51.276;6.390;2023-09-08T09:20:34;22.60;99.90
20998;DHT22;10657;51.276;6.390;2023-09-08T09:23:01;22.60;99.90
20998;DHT22;10657;51.276;6.390;2023-09-08T09:25:30;22.70;99.90
20998;DHT22;10657;51.276;6.390;2023-09-08T09:27:59;22.80;99.90
20998;DHT22;10657;51.276;6.390;2023-09-08T09:30:27;22.90;99.90
20998;DHT22;10657;51.276;6.390;2023-09-08T09:33:04;22.90;99.90
20998;DHT22;10657;51.276;6.390;2023-09-08T09:35:48;22.90;99.90
20998;DHT22;10657;51.276;6.390;2023-09-08T09:38:16;23.10;99.90
20998;DHT22;10657;51.276;6.390;2023-09-08T09:40:47;23.20;99.90
20998;DHT22;10657;51.276;6.390;2023-09-08T09:43:15;23.20;99.90
20998;DHT22;10657;51.276;6.390;2023-09-08T09:45:43;23.20;99.90
20998;DHT22;10657;51.276;6.390;2023-09-08T09:48:10;23.30;99.90
20998;DHT22;10657;51.276;6.390;2023-09-08T09:50:40;23.30;99.90
20998;DHT22;10657;51.276;6.390;2023-09-08T09:53:14;23.30;99.90
20998;DHT22;10657;51.276;6.390;2023-09-08T09:55:43;23.30;99.90
20998;DHT22;10657;51.276;6.390;2023-09-08T09:58:10;23.40;99.90
20998;DHT22;10657;51.276;6.390;2023-09-08T10:00:38;23.40;99.90
20998;DHT22;10657;51.276;6.390;2023-09-08T10:03:07;23.60;99.90
20998;DHT22;10657;51.276;6.390;2023-09-08T10:05:36;23.60;99.90
20998;DHT22;10657;51.276;6.390;2023-09-08T10:08:03;23.70;99.90
20998;DHT22;10657;51.276;6.390;2023-09-08T10:10:32;23.70;99.90
20998;DHT22;10657;51.276;6.390;2023-09-08T10:13:02;23.70;99.90
20998;DHT22;10657;51.276;6.390;2023-09-08T10:15:31;23.90;99.90
20998;DHT22;10657;51.276;6.390;2023-09-08T10:17:59;23.90;99.90
20998;DHT22;10657;51.276;6.390;2023-09-08T10:20:30;23.90;99.90
20998;DHT22;10657;51.276;6.390;2023-09-08T10:23:27;23.90;99.90
20998;DHT22;10657;51.276;6.390;2023-09-08T10:26:02;23.90;99.90
20998;DHT22;10657;51.276;6.390;2023-09-08T10:28:32;24.00;99.90
20998;DHT22;10657;51.276;6.390;2023-09-08T10:31:01;24.10;99.90
20998;DHT22;10657;51.276;6.390;2023-09-08T10:33:29;24.10;99.90
20998;DHT22;10657;51.276;6.390;2023-09-08T10:35:58;24.20;99.90
20998;DHT22;10657;51.276;6.390;2023-09-08T10:38:27;24.30;99.90
20998;DHT22;10657;51.276;6.390;2023-09-08T10:44:03;24.40;99.90
20998;DHT22;10657;51.276;6.390;2023-09-08T10:46:32;24.40;99.90
20998;DHT22;10657;51.276;6.390;2023-09-08T10:49:04;24.50;99.90
20998;DHT22;10657;51.276;6.390;2023-09-08T10:51:34;24.70;99.90
20998;DHT22;10657;51.276;6.390;2023-09-08T10:54:01;24.70;99.90
20998;DHT22;10657;51.276;6.390;2023-09-08T10:56:56;24.90;99.90
20998;DHT22;10657;51.276;6.390;2023-09-08T10:59:29;25.10;99.90
20998;DHT22;10657;51.276;6.390;2023-09-08T11:02:04;24.90;99.90
20998;DHT22;10657;51.276;6.390;2023-09-08T11:04:31;24.90;99.90
20998;DHT22;10657;51.276;6.390;2023-09-08T11:07:00;24.90;99.90
20998;DHT22;10657;51.276;6.390;2023-09-08T11:09:27;24.90;99.90
20998;DHT22;10657;51.276;6.390;2023-09-08T11:11:54;25.10;99.90
20998;DHT22;10657;51.276;6.390;2023-09-08T11:14:22;25.10;99.90
20998;DHT22;10657;51.276;6.390;2023-09-08T11:16:48;25.40;99.90
20998;DHT22;10657;51.276;6.390;2023-09-08T11:19:15;25.20;99.90
20998;DHT22;10657;51.276;6.390;2023-09-08T11:21:42;25.30;99.90
20998;DHT22;10657;51.276;6.390;2023-09-08T11:24:09;25.40;99.90
20998;DHT22;10657;51.276;6.390;2023-09-08T11:26:40;25.50;99.90
20998;DHT22;10657;51.276;6.390;2023-09-08T11:29:07;25.70;99.90
20998;DHT22;10657;51.276;6.390;2023-09-08T11:31:34;25.80;99.90
20998;DHT22;10657;51.276;6.390;2023-09-08T11:34:01;25.90;99.90
20998;DHT22;10657;51.276;6.390;2023-09-08T11:36:29;26.00;99.90
20998;DHT22;10657;51.276;6.390;2023-09-08T11:38:56;26.00;99.90
20998;DHT22;10657;51.276;6.390;2023-09-08T11:41:22;26.20;99.90
20998;DHT22;10657;51.276;6.390;2023-09-08T11:43:50;26.30;99.90
20998;DHT22;10657;51.276;6.390;2023-09-08T11:46:17;26.40;99.90
20998;DHT22;10657;51.276;6.390;2023-09-08T11:48:44;26.50;99.90
20998;DHT22;10657;51.276;6.390;2023-09-08T11:51:12;26.60;99.90
20998;DHT22;10657;51.276;6.390;2023-09-08T11:53:39;26.80;99.90
20998;DHT22;10657;51.276;6.390;2023-09-08T11:56:06;26.80;99.90
20998;DHT22;10657;51.276;6.390;2023-09-08T11:58:33;26.80;99.90
20998;DHT22;10657;51.276;6.390;2023-09-08T12:01:02;27.10;99.90
20998;DHT22;10657;51.276;6.390;2023-09-08T12:03:29;27.20;99.90
20998;DHT22;10657;51.276;6.390;2023-09-08T12:05:56;27.30;99.90
20998;DHT22;10657;51.276;6.390;2023-09-08T12:08:25;27.60;99.90
20998;DHT22;10657;51.276;6.390;2023-09-08T12:10:53;27.60;99.90
20998;DHT22;10657;51.276;6.390;2023-09-08T12:13:21;27.80;99.90
20998;DHT22;10657;51.276;6.390;2023-09-08T12:15:48;27.80;99.90
20998;DHT22;10657;51.276;6.390;2023-09-08T12:18:15;27.90;99.90
20998;DHT22;10657;51.276;6.390;2023-09-08T12:20:43;27.80;99.90
20998;DHT22;10657;51.276;6.390;2023-09-08T12:23:22;28.00;99.90
20998;DHT22;10657;51.276;6.390;2023-09-08T12:25:51;28.30;99.90
20998;DHT22;10657;51.276;6.390;2023-09-08T12:28:19;28.30;99.90
20998;DHT22;10657;51.276;6.390;2023-09-08T12:30:48;28.10;99.90
20998;DHT22;10657;51.276;6.390;2023-09-08T12:33:16;28.20;99.90
20998;DHT22;10657;51.276;6.390;2023-09-08T12:35:45;28.60;99.90
20998;DHT22;10657;51.276;6.390;2023-09-08T12:38:13;28.70;99.90
20998;DHT22;10657;51.276;6.390;2023-09-08T12:40:41;28.70;99.90
20998;DHT22;10657;51.276;6.390;2023-09-08T12:43:07;28.90;99.90
20998;DHT22;10657;51.276;6.390;2023-09-08T12:45:56;29.00;99.90
20998;DHT22;10657;51.276;6.390;2023-09-08T12:48:23;29.30;99.90
20998;DHT22;10657;51.276;6.390;2023-09-08T12:50:50;29.00;99.90
20998;DHT22;10657;51.276;6.390;2023-09-08T12:53:17;29.00;99.90
20998;DHT22;10657;51.276;6.390;2023-09-08T12:55:48;29.00;99.90
20998;DHT22;10657;51.276;6.390;2023-09-08T12:58:15;29.10;99.90
20998;DHT22;10657;51.276;6.390;2023-09-08T13:00:45;29.40;99.90
20998;DHT22;10657;51.276;6.390;2023-09-08T13:03:12;29.60;99.90
20998;DHT22;10657;51.276;6.390;2023-09-08T13:05:39;29.80;99.90
20998;DHT22;10657;51.276;6.390;2023-09-08T13:08:06;29.80;99.90
20998;DHT22;10657;51.276;6.390;2023-09-08T13:10:33;29.90;99.90
20998;DHT22;10657;51.276;6.390;2023-09-08T13:13:00;29.70;99.90
20998;DHT22;10657;51.276;6.390;2023-09-08T13:15:27;29.80;99.90
20998;DHT22;10657;51.276;6.390;2023-09-08T13:17:53;30.00;99.90
20998;DHT22;10657;51.276;6.390;2023-09-08T13:20:20;29.80;99.90
20998;DHT22;10657;51.276;6.390;2023-09-08T13:22:47;30.00;99.90
20998;DHT22;10657;51.276;6.390;2023-09-08T13:25:14;30.00;99.90
20998;DHT22;10657;51.276;6.390;2023-09-08T13:27:41;30.30;99.90
20998;DHT22;10657;51.276;6.390;2023-09-08T13:30:13;30.30;99.90
20998;DHT22;10657;51.276;6.390;2023-09-08T13:32:41;30.70;99.90
20998;DHT22;10657;51.276;6.390;2023-09-08T13:35:08;30.50;99.90
20998;DHT22;10657;51.276;6.390;2023-09-08T13:37:35;30.60;99.90
20998;DHT22;10657;51.276;6.390;2023-09-08T13:40:04;30.70;99.90
20998;DHT22;10657;51.276;6.390;2023-09-08T13:42:31;30.80;99.90
20998;DHT22;10657;51.276;6.390;2023-09-08T13:44:58;31.30;99.90
20998;DHT22;10657;51.276;6.390;2023-09-08T13:47:26;31.30;99.90
20998;DHT22;10657;51.276;6.390;2023-09-08T13:49:54;31.20;99.90
20998;DHT22;10657;51.276;6.390;2023-09-08T13:52:24;31.20;99.90
20998;DHT22;10657;51.276;6.390;2023-09-08T13:54:57;30.80;99.90
20998;DHT22;10657;51.276;6.390;2023-09-08T13:57:26;31.10;99.90
20998;DHT22;10657;51.276;6.390;2023-09-08T13:59:54;31.60;99.90
20998;DHT22;10657;51.276;6.390;2023-09-08T14:02:23;31.80;99.90
20998;DHT22;10657;51.276;6.390;2023-09-08T14:04:53;31.60;99.90
20998;DHT22;10657;51.276;6.390;2023-09-08T14:07:22;31.60;99.90
20998;DHT22;10657;51.276;6.390;2023-09-08T14:09:57;31.50;99.90
20998;DHT22;10657;51.276;6.390;2023-09-08T14:12:27;31.60;99.90
20998;DHT22;10657;51.276;6.390;2023-09-08T14:15:01;31.70;99.90
20998;DHT22;10657;51.276;6.390;2023-09-08T14:17:28;32.00;99.90
20998;DHT22;10657;51.276;6.390;2023-09-08T14:19:55;32.10;99.90
20998;DHT22;10657;51.276;6.390;2023-09-08T14:22:22;32.10;99.90
20998;DHT22;10657;51.276;6.390;2023-09-08T14:24:49;32.00;99.90
20998;DHT22;10657;51.276;6.390;2023-09-08T14:27:16;31.80;99.90
20998;DHT22;10657;51.276;6.390;2023-09-08T14:29:42;31.90;99.90
20998;DHT22;10657;51.276;6.390;2023-09-08T14:32:09;32.10;99.90
20998;DHT22;10657;51.276;6.390;2023-09-08T14:34:36;32.40;99.90
20998;DHT22;10657;51.276;6.390;2023-09-08T14:37:03;32.30;99.90
20998;DHT22;10657;51.276;6.390;2023-09-08T14:39:31;32.30;99.90
20998;DHT22;10657;51.276;6.390;2023-09-08T14:41:58;32.50;99.90
20998;DHT22;10657;51.276;6.390;2023-09-08T14:44:25;32.50;99.90
20998;DHT22;10657;51.276;6.390;2023-09-08T14:46:51;32.60;99.90
20998;DHT22;10657;51.276;6.390;2023-09-08T14:49:18;32.80;99.90
20998;DHT22;10657;51.276;6.390;2023-09-08T14:51:45;32.70;99.90
20998;DHT22;10657;51.276;6.390;2023-09-08T14:54:12;32.90;99.90
20998;DHT22;10657;51.276;6.390;2023-09-08T14:56:38;32.80;99.90
20998;DHT22;10657;51.276;6.390;2023-09-08T14:59:05;32.50;99.90
20998;DHT22;10657;51.276;6.390;2023-09-08T15:01:32;32.30;99.90
20998;DHT22;10657;51.276;6.390;2023-09-08T15:03:58;32.20;99.90
20998;DHT22;10657;51.276;6.390;2023-09-08T15:06:25;32.40;99.90
20998;DHT22;10657;51.276;6.390;2023-09-08T15:08:54;32.70;99.90
20998;DHT22;10657;51.276;6.390;2023-09-08T15:11:21;33.50;99.90
20998;DHT22;10657;51.276;6.390;2023-09-08T15:13:47;33.90;99.90
20998;DHT22;10657;51.276;6.390;2023-09-08T15:16:14;34.00;99.90
20998;DHT22;10657;51.276;6.390;2023-09-08T15:18:41;34.30;99.90
20998;DHT22;10657;51.276;6.390;2023-09-08T15:21:08;34.10;99.90
20998;DHT22;10657;51.276;6.390;2023-09-08T15:23:35;34.20;99.90
20998;DHT22;10657;51.276;6.390;2023-09-08T15:26:03;33.90;99.90
20998;DHT22;10657;51.276;6.390;2023-09-08T15:28:30;34.00;99.90
20998;DHT22;10657;51.276;6.390;2023-09-08T15:30:56;34.10;99.90
20998;DHT22;10657;51.276;6.390;2023-09-08T15:33:23;33.90;99.90
20998;DHT22;10657;51.276;6.390;2023-09-08T15:35:53;34.00;99.90
20998;DHT22;10657;51.276;6.390;2023-09-08T15:38:23;34.00;99.90
20998;DHT22;10657;51.276;6.390;2023-09-08T15:43:36;33.60;99.90